sensor_id;sensor_type;location;lat;lon;timestamp;pressure;altitude;pressure_sealevel;temperature;humidity
54459;BME280;40368;49.350;8.152;2022-10-16T00:00:10;999.2;;;19.51;71.48
54459;BME280;40368;49.350;8.152;2022-10-16T00:01:11;999.2;;;19.51;71.78
54459;BME280;40368;49.350;8.152;2022-10-16T00:02:10;999.2;;;19.51;71.51
54459;BME280;40368;49.350;8.152;2022-10-16T00:03:10;999.1;;;19.52;71.9
54459;BME280;40368;49.350;8.152;2022-10-16T00:04:10;999.1;;;19.51;71.3
54459;BME280;40368;49.350;8.152;2022-10-16T00:05:11;999;;;19.51;71.37
54459;BME280;40368;49.350;8.152;2022-10-16T00:06:10;999;;;19.5;71.83
54459;BME280;40368;49.350;8.152;2022-10-16T00:07:10;999;;;19.51;71.34
54459;BME280;40368;49.350;8.152;2022-10-16T00:08:10;999;;;19.5;71.32
54459;BME280;40368;49.350;8.152;2022-10-16T00:09:10;999.1;;;19.5;71.27
54459;BME280;40368;49.350;8.152;2022-10-16T00:10:10;999;;;19.5;70.98
54459;BME280;40368;49.350;8.152;2022-10-16T00:11:11;999.1;;;19.51;70.85
54459;BME280;40368;49.350;8.152;2022-10-16T00:12:10;999;;;19.5;70.81
54459;BME280;40368;49.350;8.152;2022-10-16T00:13:10;999;;;19.5;70.48
54459;BME280;40368;49.350;8.152;2022-10-16T00:14:11;999;;;19.5;70.21
54459;BME280;40368;49.350;8.152;2022-10-16T00:15:10;999;;;19.5;71.06
54459;BME280;40368;49.350;8.152;2022-10-16T00:16:10;999.1;;;19.5;70.72
54459;BME280;40368;49.350;8.152;2022-10-16T00:17:10;999.1;;;19.5;70.95
54459;BME280;40368;49.350;8.152;2022-10-16T00:18:10;999.2;;;19.5;71.29
54459;BME280;40368;49.350;8.152;2022-10-16T00:19:10;999.3;;;19.51;71.15
54459;BME280;40368;49.350;8.152;2022-10-16T00:20:10;999.3;;;19.5;70.5
54459;BME280;40368;49.350;8.152;2022-10-16T00:21:10;999.3;;;19.5;70.13
54459;BME280;40368;49.350;8.152;2022-10-16T00:22:10;999.3;;;19.5;70.73
54459;BME280;40368;49.350;8.152;2022-10-16T00:23:10;999.3;;;19.5;70.94
54459;BME280;40368;49.350;8.152;2022-10-16T00:24:10;999.3;;;19.5;71.01
54459;BME280;40368;49.350;8.152;2022-10-16T00:25:10;999.4;;;19.49;71.1
54459;BME280;40368;49.350;8.152;2022-10-16T00:26:11;999.4;;;19.49;71.15
54459;BME280;40368;49.350;8.152;2022-10-16T00:27:10;999.4;;;19.49;70.86
54459;BME280;40368;49.350;8.152;2022-10-16T00:28:10;999.3;;;19.49;70.04
54459;BME280;40368;49.350;8.152;2022-10-16T00:29:10;999.4;;;19.49;70.44
54459;BME280;40368;49.350;8.152;2022-10-16T00:30:10;999.4;;;19.49;70.87
54459;BME280;40368;49.350;8.152;2022-10-16T00:31:10;999.5;;;19.49;70.94
54459;BME280;40368;49.350;8.152;2022-10-16T00:32:10;999.5;;;19.5;71.08
54459;BME280;40368;49.350;8.152;2022-10-16T00:33:10;999.5;;;19.49;71.28
54459;BME280;40368;49.350;8.152;2022-10-16T00:34:10;999.5;;;19.49;71.29
54459;BME280;40368;49.350;8.152;2022-10-16T00:35:10;999.5;;;19.49;71.08
54459;BME280;40368;49.350;8.152;2022-10-16T00:36:11;999.4;;;19.48;70.74
54459;BME280;40368;49.350;8.152;2022-10-16T00:37:10;999.4;;;19.48;71.23
54459;BME280;40368;49.350;8.152;2022-10-16T00:38:10;999.4;;;19.48;71.02
54459;BME280;40368;49.350;8.152;2022-10-16T00:39:10;999.4;;;19.48;70.72
54459;BME280;40368;49.350;8.152;2022-10-16T00:40:10;999.4;;;19.46;71.3
54459;BME280;40368;49.350;8.152;2022-10-16T00:41:10;999.4;;;19.46;71.02
54459;BME280;40368;49.350;8.152;2022-10-16T00:42:11;999.4;;;19.45;70.77
54459;BME280;40368;49.350;8.152;2022-10-16T00:43:12;999.4;;;19.45;70.97
54459;BME280;40368;49.350;8.152;2022-10-16T00:44:44;999.4;;;19.46;71.23
54459;BME280;40368;49.350;8.152;2022-10-16T00:45:10;999.4;;;19.46;71.65
54459;BME280;40368;49.350;8.152;2022-10-16T00:46:11;999.4;;;19.45;71.4
54459;BME280;40368;49.350;8.152;2022-10-16T00:47:11;999.4;;;19.45;70.86
54459;BME280;40368;49.350;8.152;2022-10-16T00:48:10;999.4;;;19.45;71.46
54459;BME280;40368;49.350;8.152;2022-10-16T00:49:10;999.4;;;19.45;71.68
54459;BME280;40368;49.350;8.152;2022-10-16T00:50:11;999.4;;;19.45;71.69
54459;BME280;40368;49.350;8.152;2022-10-16T00:51:10;999.5;;;19.45;71.03
54459;BME280;40368;49.350;8.152;2022-10-16T00:52:10;999.4;;;19.45;71.42
54459;BME280;40368;49.350;8.152;2022-10-16T00:53:10;999.4;;;19.45;71.22
54459;BME280;40368;49.350;8.152;2022-10-16T00:54:10;999.5;;;19.44;72.12
54459;BME280;40368;49.350;8.152;2022-10-16T00:55:10;999.5;;;19.44;71.51
54459;BME280;40368;49.350;8.152;2022-10-16T00:56:10;999.5;;;19.43;70.85
54459;BME280;40368;49.350;8.152;2022-10-16T00:57:10;999.5;;;19.45;71.33
54459;BME280;40368;49.350;8.152;2022-10-16T00:58:10;999.5;;;19.44;70.14
54459;BME280;40368;49.350;8.152;2022-10-16T00:59:11;999.5;;;19.45;71.35
54459;BME280;40368;49.350;8.152;2022-10-16T01:00:11;999.5;;;19.45;71.62
54459;BME280;40368;49.350;8.152;2022-10-16T01:01:10;999.5;;;19.45;71.11
54459;BME280;40368;49.350;8.152;2022-10-16T01:02:12;999.5;;;19.45;71.29
54459;BME280;40368;49.350;8.152;2022-10-16T01:03:23;999.5;;;19.45;70.96
54459;BME280;40368;49.350;8.152;2022-10-16T01:05:10;999.6;;;19.45;71.51
54459;BME280;40368;49.350;8.152;2022-10-16T01:07:12;999.6;;;19.45;71.16
54459;BME280;40368;49.350;8.152;2022-10-16T01:08:22;999.6;;;19.45;71.65
54459;BME280;40368;49.350;8.152;2022-10-16T01:09:21;999.5;;;19.44;71.29
54459;BME280;40368;49.350;8.152;2022-10-16T01:10:22;999.5;;;19.45;69.56
54459;BME280;40368;49.350;8.152;2022-10-16T01:11:22;999.5;;;19.44;71.02
54459;BME280;40368;49.350;8.152;2022-10-16T01:13:10;999.4;;;19.43;71.23
54459;BME280;40368;49.350;8.152;2022-10-16T01:14:11;999.4;;;19.43;70.9
54459;BME280;40368;49.350;8.152;2022-10-16T01:15:32;999.5;;;19.43;71.32
54459;BME280;40368;49.350;8.152;2022-10-16T01:16:22;999.5;;;19.44;71.09
54459;BME280;40368;49.350;8.152;2022-10-16T01:17:22;999.5;;;19.44;71.24
54459;BME280;40368;49.350;8.152;2022-10-16T01:18:21;999.5;;;19.44;71.19
54459;BME280;40368;49.350;8.152;2022-10-16T01:19:12;999.5;;;19.44;71.13
54459;BME280;40368;49.350;8.152;2022-10-16T01:20:11;999.4;;;19.43;71.09
54459;BME280;40368;49.350;8.152;2022-10-16T01:21:21;999.5;;;19.43;71.1
54459;BME280;40368;49.350;8.152;2022-10-16T01:22:10;999.5;;;19.43;70.8
54459;BME280;40368;49.350;8.152;2022-10-16T01:23:22;999.5;;;19.42;70.98
54459;BME280;40368;49.350;8.152;2022-10-16T01:24:23;999.5;;;19.43;70.92
54459;BME280;40368;49.350;8.152;2022-10-16T01:25:22;999.5;;;19.43;70.47
54459;BME280;40368;49.350;8.152;2022-10-16T01:26:13;999.5;;;19.43;70.56
54459;BME280;40368;49.350;8.152;2022-10-16T01:27:11;999.5;;;19.43;70.78
54459;BME280;40368;49.350;8.152;2022-10-16T01:28:10;999.5;;;19.43;70.72
54459;BME280;40368;49.350;8.152;2022-10-16T01:29:13;999.6;;;19.42;71.38
54459;BME280;40368;49.350;8.152;2022-10-16T01:30:11;999.6;;;19.41;70.75
54459;BME280;40368;49.350;8.152;2022-10-16T01:31:10;999.6;;;19.41;70.86
54459;BME280;40368;49.350;8.152;2022-10-16T01:32:13;999.7;;;19.42;70.73
54459;BME280;40368;49.350;8.152;2022-10-16T01:33:12;999.6;;;19.41;71.03
54459;BME280;40368;49.350;8.152;2022-10-16T01:34:11;999.7;;;19.42;70.92
54459;BME280;40368;49.350;8.152;2022-10-16T01:35:11;999.7;;;19.42;71.12
54459;BME280;40368;49.350;8.152;2022-10-16T01:36:10;999.7;;;19.41;70.84
54459;BME280;40368;49.350;8.152;2022-10-16T01:37:11;999.7;;;19.4;70.94
54459;BME280;40368;49.350;8.152;2022-10-16T01:38:12;999.7;;;19.4;70.71
54459;BME280;40368;49.350;8.152;2022-10-16T01:39:10;999.7;;;19.4;70.75
54459;BME280;40368;49.350;8.152;2022-10-16T01:40:11;999.7;;;19.39;70.96
54459;BME280;40368;49.350;8.152;2022-10-16T01:41:10;999.7;;;19.39;70.96
54459;BME280;40368;49.350;8.152;2022-10-16T01:43:11;999.7;;;19.4;70.87
54459;BME280;40368;49.350;8.152;2022-10-16T01:44:10;999.7;;;19.4;70.55
54459;BME280;40368;49.350;8.152;2022-10-16T01:45:10;999.6;;;19.39;70.42
54459;BME280;40368;49.350;8.152;2022-10-16T01:46:10;999.7;;;19.39;70.51
54459;BME280;40368;49.350;8.152;2022-10-16T01:47:10;999.6;;;19.37;70.63
54459;BME280;40368;49.350;8.152;2022-10-16T01:48:10;999.6;;;19.37;70.45
54459;BME280;40368;49.350;8.152;2022-10-16T01:49:10;999.6;;;19.37;70.41
54459;BME280;40368;49.350;8.152;2022-10-16T01:50:10;999.8;;;19.37;70.94
54459;BME280;40368;49.350;8.152;2022-10-16T01:51:10;999.8;;;19.37;70.69
54459;BME280;40368;49.350;8.152;2022-10-16T01:52:11;999.8;;;19.37;70.9
54459;BME280;40368;49.350;8.152;2022-10-16T01:53:11;999.8;;;19.37;70.95
54459;BME280;40368;49.350;8.152;2022-10-16T01:54:10;999.8;;;19.37;70.91
54459;BME280;40368;49.350;8.152;2022-10-16T01:55:10;999.8;;;19.37;71.15
54459;BME280;40368;49.350;8.152;2022-10-16T01:56:10;999.8;;;19.37;71.1
54459;BME280;40368;49.350;8.152;2022-10-16T01:57:10;999.8;;;19.37;71.08
54459;BME280;40368;49.350;8.152;2022-10-16T01:58:11;999.8;;;19.37;70.91
54459;BME280;40368;49.350;8.152;2022-10-16T01:59:11;999.8;;;19.37;71.11
54459;BME280;40368;49.350;8.152;2022-10-16T02:00:10;999.7;;;19.37;71.07
54459;BME280;40368;49.350;8.152;2022-10-16T02:01:10;999.7;;;19.37;71.28
54459;BME280;40368;49.350;8.152;2022-10-16T02:02:10;999.7;;;19.37;71.18
54459;BME280;40368;49.350;8.152;2022-10-16T02:03:10;999.8;;;19.37;71.19
54459;BME280;40368;49.350;8.152;2022-10-16T02:04:11;999.7;;;19.36;71.06
54459;BME280;40368;49.350;8.152;2022-10-16T02:05:10;999.8;;;19.37;70.97
54459;BME280;40368;49.350;8.152;2022-10-16T02:06:11;999.7;;;19.36;70.86
54459;BME280;40368;49.350;8.152;2022-10-16T02:07:10;999.8;;;19.36;71
54459;BME280;40368;49.350;8.152;2022-10-16T02:08:10;999.8;;;19.36;71
54459;BME280;40368;49.350;8.152;2022-10-16T02:09:10;999.8;;;19.37;70.84
54459;BME280;40368;49.350;8.152;2022-10-16T02:10:10;999.8;;;19.36;70.99
54459;BME280;40368;49.350;8.152;2022-10-16T02:11:10;999.8;;;19.36;71.09
54459;BME280;40368;49.350;8.152;2022-10-16T02:12:12;999.8;;;19.37;71.17
54459;BME280;40368;49.350;8.152;2022-10-16T02:13:10;999.8;;;19.36;71.15
54459;BME280;40368;49.350;8.152;2022-10-16T02:14:10;999.7;;;19.36;71.21
54459;BME280;40368;49.350;8.152;2022-10-16T02:15:10;999.7;;;19.35;71.02
54459;BME280;40368;49.350;8.152;2022-10-16T02:16:10;999.7;;;19.36;71.27
54459;BME280;40368;49.350;8.152;2022-10-16T02:17:10;999.7;;;19.35;71.45
54459;BME280;40368;49.350;8.152;2022-10-16T02:18:10;999.7;;;19.35;70.88
54459;BME280;40368;49.350;8.152;2022-10-16T02:19:10;999.7;;;19.34;71.35
54459;BME280;40368;49.350;8.152;2022-10-16T02:20:10;999.6;;;19.34;71.52
54459;BME280;40368;49.350;8.152;2022-10-16T02:21:12;999.7;;;19.34;70.88
54459;BME280;40368;49.350;8.152;2022-10-16T02:22:11;999.6;;;19.34;71.36
54459;BME280;40368;49.350;8.152;2022-10-16T02:23:11;999.7;;;19.35;71.46
54459;BME280;40368;49.350;8.152;2022-10-16T02:24:11;999.7;;;19.35;71.66
54459;BME280;40368;49.350;8.152;2022-10-16T02:25:10;999.8;;;19.35;71.38
54459;BME280;40368;49.350;8.152;2022-10-16T02:26:12;999.8;;;19.34;71.48
54459;BME280;40368;49.350;8.152;2022-10-16T02:27:10;999.8;;;19.35;71.39
54459;BME280;40368;49.350;8.152;2022-10-16T02:28:11;999.8;;;19.34;71.41
54459;BME280;40368;49.350;8.152;2022-10-16T02:29:10;999.7;;;19.34;71.28
54459;BME280;40368;49.350;8.152;2022-10-16T02:30:11;999.7;;;19.33;71.39
54459;BME280;40368;49.350;8.152;2022-10-16T02:31:10;999.7;;;19.33;71.35
54459;BME280;40368;49.350;8.152;2022-10-16T02:32:10;999.7;;;19.33;71.44
54459;BME280;40368;49.350;8.152;2022-10-16T02:33:10;999.6;;;19.32;71.65
54459;BME280;40368;49.350;8.152;2022-10-16T02:34:10;999.7;;;19.32;71.36
54459;BME280;40368;49.350;8.152;2022-10-16T02:35:10;999.6;;;19.32;71.44
54459;BME280;40368;49.350;8.152;2022-10-16T02:36:10;999.7;;;19.33;71.59
54459;BME280;40368;49.350;8.152;2022-10-16T02:37:10;999.7;;;19.32;71.35
54459;BME280;40368;49.350;8.152;2022-10-16T02:38:10;999.7;;;19.33;71.44
54459;BME280;40368;49.350;8.152;2022-10-16T02:39:10;999.7;;;19.32;71.53
54459;BME280;40368;49.350;8.152;2022-10-16T02:40:10;999.8;;;19.32;71.2
54459;BME280;40368;49.350;8.152;2022-10-16T02:41:11;999.8;;;19.32;71.54
54459;BME280;40368;49.350;8.152;2022-10-16T02:42:10;999.8;;;19.32;71.54
54459;BME280;40368;49.350;8.152;2022-10-16T02:43:10;999.8;;;19.31;71.36
54459;BME280;40368;49.350;8.152;2022-10-16T02:44:10;999.8;;;19.31;71.49
54459;BME280;40368;49.350;8.152;2022-10-16T02:45:10;999.8;;;19.29;71.39
54459;BME280;40368;49.350;8.152;2022-10-16T02:46:10;999.8;;;19.29;71.41
54459;BME280;40368;49.350;8.152;2022-10-16T02:47:10;999.8;;;19.29;71.35
54459;BME280;40368;49.350;8.152;2022-10-16T02:48:10;999.8;;;19.29;71.5
54459;BME280;40368;49.350;8.152;2022-10-16T02:49:10;999.9;;;19.29;71.37
54459;BME280;40368;49.350;8.152;2022-10-16T02:50:10;999.9;;;19.29;71.3
54459;BME280;40368;49.350;8.152;2022-10-16T02:51:10;999.9;;;19.29;71.15
54459;BME280;40368;49.350;8.152;2022-10-16T02:52:11;999.9;;;19.29;71.56
54459;BME280;40368;49.350;8.152;2022-10-16T02:53:10;1000;;;19.29;71.85
54459;BME280;40368;49.350;8.152;2022-10-16T02:54:10;999.9;;;19.27;71.64
54459;BME280;40368;49.350;8.152;2022-10-16T02:55:10;999.9;;;19.26;71.51
54459;BME280;40368;49.350;8.152;2022-10-16T02:56:10;999.9;;;19.27;71.09
54459;BME280;40368;49.350;8.152;2022-10-16T02:57:10;999.8;;;19.28;71.4
54459;BME280;40368;49.350;8.152;2022-10-16T02:58:10;999.8;;;19.28;71.36
54459;BME280;40368;49.350;8.152;2022-10-16T02:59:10;999.8;;;19.27;71.66
54459;BME280;40368;49.350;8.152;2022-10-16T03:00:11;999.8;;;19.27;71.27
54459;BME280;40368;49.350;8.152;2022-10-16T03:01:10;999.8;;;19.27;71.35
54459;BME280;40368;49.350;8.152;2022-10-16T03:02:10;999.8;;;19.27;71.29
54459;BME280;40368;49.350;8.152;2022-10-16T03:03:10;999.9;;;19.27;71.18
54459;BME280;40368;49.350;8.152;2022-10-16T03:04:10;999.9;;;19.26;71.28
54459;BME280;40368;49.350;8.152;2022-10-16T03:05:10;999.9;;;19.26;71.14
54459;BME280;40368;49.350;8.152;2022-10-16T03:06:10;999.9;;;19.24;71.16
54459;BME280;40368;49.350;8.152;2022-10-16T03:07:10;999.9;;;19.24;70.9
54459;BME280;40368;49.350;8.152;2022-10-16T03:08:10;999.9;;;19.24;70.98
54459;BME280;40368;49.350;8.152;2022-10-16T03:09:10;999.9;;;19.24;71.15
54459;BME280;40368;49.350;8.152;2022-10-16T03:11:10;999.8;;;19.25;71.04
54459;BME280;40368;49.350;8.152;2022-10-16T03:12:10;999.8;;;19.25;71.21
54459;BME280;40368;49.350;8.152;2022-10-16T03:13:10;999.8;;;19.25;71.04
54459;BME280;40368;49.350;8.152;2022-10-16T03:14:10;999.8;;;19.25;71.09
54459;BME280;40368;49.350;8.152;2022-10-16T03:15:10;999.8;;;19.25;70.93
54459;BME280;40368;49.350;8.152;2022-10-16T03:16:10;999.8;;;19.25;70.53
54459;BME280;40368;49.350;8.152;2022-10-16T03:17:10;999.8;;;19.25;71.01
54459;BME280;40368;49.350;8.152;2022-10-16T03:18:11;999.7;;;19.24;70.83
54459;BME280;40368;49.350;8.152;2022-10-16T03:19:10;999.7;;;19.24;71.21
54459;BME280;40368;49.350;8.152;2022-10-16T03:20:10;999.7;;;19.23;71.07
54459;BME280;40368;49.350;8.152;2022-10-16T03:21:10;999.8;;;19.23;71.1
54459;BME280;40368;49.350;8.152;2022-10-16T03:22:10;999.8;;;19.23;71.07
54459;BME280;40368;49.350;8.152;2022-10-16T03:23:10;999.8;;;19.21;71.37
54459;BME280;40368;49.350;8.152;2022-10-16T03:24:10;999.9;;;19.21;71.52
54459;BME280;40368;49.350;8.152;2022-10-16T03:25:11;999.9;;;19.2;71.1
54459;BME280;40368;49.350;8.152;2022-10-16T03:26:10;999.9;;;19.2;71.19
54459;BME280;40368;49.350;8.152;2022-10-16T03:27:10;999.9;;;19.2;70.96
54459;BME280;40368;49.350;8.152;2022-10-16T03:28:10;999.9;;;19.2;71.02
54459;BME280;40368;49.350;8.152;2022-10-16T03:29:10;1000;;;19.21;70.99
54459;BME280;40368;49.350;8.152;2022-10-16T03:30:10;999.9;;;19.2;71.03
54459;BME280;40368;49.350;8.152;2022-10-16T03:31:10;999.9;;;19.2;70.81
54459;BME280;40368;49.350;8.152;2022-10-16T03:32:10;999.8;;;19.2;70.74
54459;BME280;40368;49.350;8.152;2022-10-16T03:33:10;999.9;;;19.2;70.86
54459;BME280;40368;49.350;8.152;2022-10-16T03:34:10;999.9;;;19.2;70.87
54459;BME280;40368;49.350;8.152;2022-10-16T03:35:10;999.9;;;19.2;70.96
54459;BME280;40368;49.350;8.152;2022-10-16T03:36:10;1000;;;19.2;70.85
54459;BME280;40368;49.350;8.152;2022-10-16T03:37:10;999.9;;;19.19;70.6
54459;BME280;40368;49.350;8.152;2022-10-16T03:38:10;999.9;;;19.18;70.78
54459;BME280;40368;49.350;8.152;2022-10-16T03:39:10;999.9;;;19.19;70.69
54459;BME280;40368;49.350;8.152;2022-10-16T03:40:10;999.9;;;19.19;70.94
54459;BME280;40368;49.350;8.152;2022-10-16T03:41:10;999.9;;;19.18;71.11
54459;BME280;40368;49.350;8.152;2022-10-16T03:42:10;999.9;;;19.18;70.82
54459;BME280;40368;49.350;8.152;2022-10-16T03:43:10;999.9;;;19.17;70.85
54459;BME280;40368;49.350;8.152;2022-10-16T03:44:10;1000;;;19.18;70.48
54459;BME280;40368;49.350;8.152;2022-10-16T03:45:10;1000;;;19.18;70.61
54459;BME280;40368;49.350;8.152;2022-10-16T03:46:10;1000;;;19.18;70.68
54459;BME280;40368;49.350;8.152;2022-10-16T03:47:10;1000;;;19.18;70.7
54459;BME280;40368;49.350;8.152;2022-10-16T03:48:10;1000;;;19.17;70.53
54459;BME280;40368;49.350;8.152;2022-10-16T03:49:10;1000;;;19.17;70.51
54459;BME280;40368;49.350;8.152;2022-10-16T03:50:10;1000.1;;;19.17;70.63
54459;BME280;40368;49.350;8.152;2022-10-16T03:51:10;1000;;;19.17;70.77
54459;BME280;40368;49.350;8.152;2022-10-16T03:52:10;1000;;;19.17;70.78
54459;BME280;40368;49.350;8.152;2022-10-16T03:53:10;1000;;;19.16;70.66
54459;BME280;40368;49.350;8.152;2022-10-16T03:54:10;1000;;;19.17;70.76
54459;BME280;40368;49.350;8.152;2022-10-16T03:55:10;1000;;;19.16;70.63
54459;BME280;40368;49.350;8.152;2022-10-16T03:56:10;1000;;;19.15;70.67
54459;BME280;40368;49.350;8.152;2022-10-16T03:57:10;1000;;;19.16;70.74
54459;BME280;40368;49.350;8.152;2022-10-16T03:58:10;1000;;;19.16;70.76
54459;BME280;40368;49.350;8.152;2022-10-16T03:59:10;1000;;;19.17;70.5
54459;BME280;40368;49.350;8.152;2022-10-16T04:00:10;1000;;;19.16;70.54
54459;BME280;40368;49.350;8.152;2022-10-16T04:01:10;1000;;;19.15;70.76
54459;BME280;40368;49.350;8.152;2022-10-16T04:02:10;1000;;;19.15;70.64
54459;BME280;40368;49.350;8.152;2022-10-16T04:03:10;1000;;;19.15;71.06
54459;BME280;40368;49.350;8.152;2022-10-16T04:04:10;1000;;;19.14;70.82
54459;BME280;40368;49.350;8.152;2022-10-16T04:05:10;1000;;;19.12;70.84
54459;BME280;40368;49.350;8.152;2022-10-16T04:06:10;1000;;;19.14;70.9
54459;BME280;40368;49.350;8.152;2022-10-16T04:07:10;1000;;;19.14;70.57
54459;BME280;40368;49.350;8.152;2022-10-16T04:08:10;1000;;;19.14;70.74
54459;BME280;40368;49.350;8.152;2022-10-16T04:09:10;1000;;;19.14;70.81
54459;BME280;40368;49.350;8.152;2022-10-16T04:10:10;1000;;;19.14;70.89
54459;BME280;40368;49.350;8.152;2022-10-16T04:11:10;1000;;;19.15;70.58
54459;BME280;40368;49.350;8.152;2022-10-16T04:12:10;1000.1;;;19.12;70.99
54459;BME280;40368;49.350;8.152;2022-10-16T04:13:10;1000.1;;;19.12;70.59
54459;BME280;40368;49.350;8.152;2022-10-16T04:14:10;1000.1;;;19.12;70.85
54459;BME280;40368;49.350;8.152;2022-10-16T04:15:10;1000.1;;;19.12;70.49
54459;BME280;40368;49.350;8.152;2022-10-16T04:16:10;1000.1;;;19.12;70.48
54459;BME280;40368;49.350;8.152;2022-10-16T04:17:10;1000.1;;;19.12;70.31
54459;BME280;40368;49.350;8.152;2022-10-16T04:18:10;1000.1;;;19.12;70.32
54459;BME280;40368;49.350;8.152;2022-10-16T04:19:10;1000.2;;;19.14;70.2
54459;BME280;40368;49.350;8.152;2022-10-16T04:20:10;1000.3;;;19.12;70.63
54459;BME280;40368;49.350;8.152;2022-10-16T04:21:10;1000.3;;;19.14;70.44
54459;BME280;40368;49.350;8.152;2022-10-16T04:22:10;1000.3;;;19.12;70.33
54459;BME280;40368;49.350;8.152;2022-10-16T04:23:10;1000.2;;;19.12;71.11
54459;BME280;40368;49.350;8.152;2022-10-16T04:24:10;1000.2;;;19.11;70.23
54459;BME280;40368;49.350;8.152;2022-10-16T04:25:10;1000.2;;;19.1;70.95
54459;BME280;40368;49.350;8.152;2022-10-16T04:26:10;1000.2;;;19.06;70.94
54459;BME280;40368;49.350;8.152;2022-10-16T04:27:10;1000.2;;;19.07;70.55
54459;BME280;40368;49.350;8.152;2022-10-16T04:28:10;1000.2;;;19.08;71.16
54459;BME280;40368;49.350;8.152;2022-10-16T04:29:10;1000.2;;;19.07;70.8
54459;BME280;40368;49.350;8.152;2022-10-16T04:30:10;1000.1;;;19.07;70.68
54459;BME280;40368;49.350;8.152;2022-10-16T04:31:10;1000.1;;;19.07;70.75
54459;BME280;40368;49.350;8.152;2022-10-16T04:32:11;1000.1;;;19.08;70.74
54459;BME280;40368;49.350;8.152;2022-10-16T04:33:10;1000.2;;;19.08;70.32
54459;BME280;40368;49.350;8.152;2022-10-16T04:34:10;1000.2;;;19.09;70.48
54459;BME280;40368;49.350;8.152;2022-10-16T04:35:10;1000.2;;;19.09;70.26
54459;BME280;40368;49.350;8.152;2022-10-16T04:36:10;1000.1;;;19.08;70.48
54459;BME280;40368;49.350;8.152;2022-10-16T04:37:10;1000.2;;;19.1;70.35
54459;BME280;40368;49.350;8.152;2022-10-16T04:38:10;1000.2;;;19.09;70.38
54459;BME280;40368;49.350;8.152;2022-10-16T04:39:10;1000.2;;;19.1;70.18
54459;BME280;40368;49.350;8.152;2022-10-16T04:40:10;1000.2;;;19.11;70.4
54459;BME280;40368;49.350;8.152;2022-10-16T04:41:10;1000.1;;;19.1;70.35
54459;BME280;40368;49.350;8.152;2022-10-16T04:42:10;1000.1;;;19.1;70.26
54459;BME280;40368;49.350;8.152;2022-10-16T04:43:10;1000.1;;;19.09;70.09
54459;BME280;40368;49.350;8.152;2022-10-16T04:44:10;1000.2;;;19.1;70.18
54459;BME280;40368;49.350;8.152;2022-10-16T04:45:10;1000.2;;;19.1;70.18
54459;BME280;40368;49.350;8.152;2022-10-16T04:46:10;1000.1;;;19.09;70.14
54459;BME280;40368;49.350;8.152;2022-10-16T04:47:10;1000.1;;;19.09;70.26
54459;BME280;40368;49.350;8.152;2022-10-16T04:48:10;1000;;;19.08;70.37
54459;BME280;40368;49.350;8.152;2022-10-16T04:49:10;1000.1;;;19.08;70.31
54459;BME280;40368;49.350;8.152;2022-10-16T04:50:10;1000.1;;;19.09;70.28
54459;BME280;40368;49.350;8.152;2022-10-16T04:51:10;1000.1;;;19.08;70.3
54459;BME280;40368;49.350;8.152;2022-10-16T04:52:10;1000.1;;;19.08;70.46
54459;BME280;40368;49.350;8.152;2022-10-16T04:53:10;1000.1;;;19.07;70.95
54459;BME280;40368;49.350;8.152;2022-10-16T04:54:10;1000.1;;;19.06;70.61
54459;BME280;40368;49.350;8.152;2022-10-16T04:55:10;1000.1;;;19.04;70.48
54459;BME280;40368;49.350;8.152;2022-10-16T04:56:11;1000.1;;;19.04;70.25
54459;BME280;40368;49.350;8.152;2022-10-16T04:57:10;1000.2;;;19.06;70.31
54459;BME280;40368;49.350;8.152;2022-10-16T04:58:10;1000.1;;;19.04;70.31
54459;BME280;40368;49.350;8.152;2022-10-16T04:59:10;1000.2;;;19.06;70.59
54459;BME280;40368;49.350;8.152;2022-10-16T05:00:10;1000.2;;;19.07;70.42
54459;BME280;40368;49.350;8.152;2022-10-16T05:01:10;1000.1;;;19.06;70.48
54459;BME280;40368;49.350;8.152;2022-10-16T05:02:10;1000.1;;;19.06;70.32
54459;BME280;40368;49.350;8.152;2022-10-16T05:03:10;1000.1;;;19.06;70.3
54459;BME280;40368;49.350;8.152;2022-10-16T05:04:10;1000.1;;;19.06;70.65
54459;BME280;40368;49.350;8.152;2022-10-16T05:05:10;1000.1;;;19.07;70.35
54459;BME280;40368;49.350;8.152;2022-10-16T05:06:10;1000.1;;;19.04;70.45
54459;BME280;40368;49.350;8.152;2022-10-16T05:07:10;1000.1;;;19.06;70.48
54459;BME280;40368;49.350;8.152;2022-10-16T05:08:10;1000.1;;;19.04;70.57
54459;BME280;40368;49.350;8.152;2022-10-16T05:09:10;1000.1;;;19.04;70.58
54459;BME280;40368;49.350;8.152;2022-10-16T05:10:10;1000;;;19.04;70.54
54459;BME280;40368;49.350;8.152;2022-10-16T05:11:10;1000;;;19.04;70.63
54459;BME280;40368;49.350;8.152;2022-10-16T05:12:10;1000;;;19.04;70.44
54459;BME280;40368;49.350;8.152;2022-10-16T05:13:10;1000;;;19.04;70.37
54459;BME280;40368;49.350;8.152;2022-10-16T05:14:10;1000;;;19.04;70.45
54459;BME280;40368;49.350;8.152;2022-10-16T05:15:10;1000;;;19.04;70.38
54459;BME280;40368;49.350;8.152;2022-10-16T05:16:10;1000;;;19.04;70.36
54459;BME280;40368;49.350;8.152;2022-10-16T05:17:10;1000;;;19.04;70.45
54459;BME280;40368;49.350;8.152;2022-10-16T05:18:10;1000;;;19.04;70.41
54459;BME280;40368;49.350;8.152;2022-10-16T05:19:10;1000.1;;;19.04;70.44
54459;BME280;40368;49.350;8.152;2022-10-16T05:20:10;1000.1;;;19.04;70.53
54459;BME280;40368;49.350;8.152;2022-10-16T05:21:10;1000.1;;;19.04;70.32
54459;BME280;40368;49.350;8.152;2022-10-16T05:22:10;1000.1;;;19.04;70.26
54459;BME280;40368;49.350;8.152;2022-10-16T05:23:10;1000.1;;;19.04;70.32
54459;BME280;40368;49.350;8.152;2022-10-16T05:24:10;1000.1;;;19.04;70.42
54459;BME280;40368;49.350;8.152;2022-10-16T05:25:10;1000.1;;;19.04;70.27
54459;BME280;40368;49.350;8.152;2022-10-16T05:26:10;1000.2;;;19.04;70.14
54459;BME280;40368;49.350;8.152;2022-10-16T05:27:10;1000.3;;;19.04;70.54
54459;BME280;40368;49.350;8.152;2022-10-16T05:28:10;1000.3;;;19.03;70.8
54459;BME280;40368;49.350;8.152;2022-10-16T05:29:10;1000.4;;;19.02;70.83
54459;BME280;40368;49.350;8.152;2022-10-16T05:30:10;1000.4;;;19;70.8
54459;BME280;40368;49.350;8.152;2022-10-16T05:31:10;1000.4;;;18.99;70.6
54459;BME280;40368;49.350;8.152;2022-10-16T05:32:10;1000.3;;;19;70.18
54459;BME280;40368;49.350;8.152;2022-10-16T05:33:10;1000.2;;;19;70.51
54459;BME280;40368;49.350;8.152;2022-10-16T05:34:10;1000.1;;;18.99;70.26
54459;BME280;40368;49.350;8.152;2022-10-16T05:35:10;1000.2;;;18.99;70.36
54459;BME280;40368;49.350;8.152;2022-10-16T05:36:10;1000.1;;;19.01;70.52